This demonstration page uses our WeatherBlox Daily Observations layout. Learn more.

36.17497, -115.13722

Hourly Observations for June 18, 2018

Temp ( °F °C ) Dew Point ( °F °C ) Humidity (%) Winds ( mph kmh ) Pressure ( in mb ) Visibility ( mi km ) Precip ( " mm )
12:53 am 00:53 Clear 77 25 18 -7.8 11 11 S 12 19 29.74 1007 10 16.09344 0 0
1:53 am 01:53 Clear 75 23.9 21 -6.1 13 13 S 7 11 29.77 1008 10 16.09344 0 0
2:53 am 02:53 Clear 73 22.8 23 -5 15 15 SW 9 15 29.77 1008 10 16.09344 0 0
3:53 am 03:53 Clear 71 21.7 19 -7.2 14 14 NW 5 7 29.8 1009 10 16.09344 0 0
4:53 am 04:53 Clear 71 21.7 21 -6.1 15 15 NW 7 11 29.83 1010 10 16.09344 0 0
5:53 am 05:53 Sunny 70 21.1 23 -5 17 17 W 5 7 29.85 1011 10 16.09344 0 0
6:53 am 06:53 Sunny 72 22.2 26 -3.3 18 18 NNW 6 9 29.85 1011 10 16.09344 0 0
7:53 am 07:53 Sunny 76 24.4 25 -3.9 15 15 NNW 12 19 29.88 1012 10 16.09344 0 0
8:53 am 08:53 Sunny 78 25.6 23 -5 13 13 NW 8 13 29.88 1012 10 16.09344 0 0
9:53 am 09:53 Sunny 80 26.7 24 -4.4 13 13 N 3 6 29.88 1012 10 16.09344 0 0
10:53 am 10:53 Sunny 81 27.2 23 -5 12 12 S 3 6 29.91 1013 10 16.09344 0 0
11:53 am 11:53 Sunny 84 28.9 20 -6.7 9 9 Calm 29.88 1012 10 16.09344 0 0
12:53 pm 12:53 Sunny 86 30 21 -6.1 9 9 N 6 9 29.88 1012 10 16.09344 0 0
1:53 pm 13:53 Sunny 88 31.1 17 -8.3 7 7 SE 7 11 29.85 1011 10 16.09344 0 0
2:53 pm 14:53 Sunny 90 32.2 18 -7.8 7 7 undefined N/A 29.83 1010 10 16.09344 0 0
3:53 pm 15:53 Sunny 91 32.8 17 -8.3 6 6 N 3 6 29.8 1009 10 16.09344 0 0
4:53 pm 16:53 Sunny 92 33.3 18 -7.8 6 6 undefined N/A 29.8 1009 10 16.09344 0 0
5:53 pm 17:53 Sunny 92 33.3 21 -6.1 7 7 ESE 12 19 29.77 1008 10 16.09344 0 0
6:53 pm 18:53 Sunny 91 32.8 23 -5 8 8 SE 9 15 29.77 1008 10 16.09344 0 0
7:53 pm 19:53 Sunny 89 31.7 22 -5.6 8 8 ESE 10 17 29.8 1009 10 16.09344 0 0
8:53 pm 20:53 Clear 88 31.1 21 -6.1 8 8 SE 14 22 29.8 1009 10 16.09344 0 0
9:53 pm 21:53 Clear 85 29.4 21 -6.1 9 9 SE 6 9 29.83 1010 10 16.09344 0 0
10:53 pm 22:53 Clear 83 28.3 22 -5.6 10 10 N 5 7 29.83 1010 10 16.09344 0 0
11:53 pm 23:53 Clear 80 26.7 25 -3.9 13 13 NNW 8 13 29.83 1010 10 16.09344 0 0

Powered by AerisWeather